Terminal Aerodrome Forecast
Issued by NWS

Home | Current Version | Previous Version | Text Only | Print | Product List | Glossary On
Versions: 1 2 3 4 5 6 7 8 9 10 11 12 13 14 15 16 17 18 19 20 21 22 23 24 25 26 27 28 29 30 31 32 33 34 35 36 37 38 39 40 41 42 43 44 45 46 47 48 49 50
000
FTUS45 KBOU 071608 AAC
TAFBJC
TAF AMD
KBJC 071608Z 0716/0812 15010KT P6SM SCT004 BKN050 BKN100
      TEMPO 0716/0718 2SM BR BKN004
     FM071800 15012KT P6SM VCTS SCT050CB BKN120
      TEMPO 0720/0724 5SM -TSRA BKN050CB
     FM080000 17015KT P6SM VCTS SCT050CB BKN120
     FM080300 18010KT P6SM VCSH SCT050 BKN120
     FM080700 15007KT P6SM VCTS SCT040CB BKN100=

USA.gov is the U.S. government's official web portal to all federal, state and local government web resources and services.